createdAt,value
2022-08-20T00:03:50.299Z,99.90
2022-08-20T00:08:57.190Z,99.90
2022-08-20T00:14:05.068Z,99.90
2022-08-20T00:19:10.223Z,99.90
2022-08-20T00:24:13.978Z,99.90
2022-08-20T00:29:20.114Z,99.90
2022-08-20T00:34:24.257Z,99.90
2022-08-20T00:39:27.887Z,99.90
2022-08-20T00:44:33.048Z,99.90
2022-08-20T00:49:36.739Z,99.90
2022-08-20T00:54:44.660Z,99.90
2022-08-20T00:59:51.745Z,99.90
2022-08-20T01:04:56.738Z,99.90
2022-08-20T01:10:01.385Z,99.90
2022-08-20T01:15:11.236Z,99.90
2022-08-20T01:20:17.816Z,99.90
2022-08-20T01:25:29.699Z,99.90
2022-08-20T01:30:35.762Z,99.90
2022-08-20T01:35:40.963Z,99.90
2022-08-20T01:41:08.336Z,99.90
2022-08-20T01:46:14.286Z,99.90
2022-08-20T01:51:22.808Z,99.90
2022-08-20T01:56:30.059Z,99.90
2022-08-20T02:01:46.309Z,99.90
2022-08-20T02:06:56.188Z,99.90
2022-08-20T02:12:03.064Z,99.90
2022-08-20T02:17:08.135Z,99.90
2022-08-20T02:22:19.373Z,99.90
2022-08-20T02:27:23.878Z,99.90
2022-08-20T02:32:33.936Z,99.90
2022-08-20T02:37:39.199Z,99.90
2022-08-20T02:42:43.225Z,99.90
2022-08-20T02:47:50.764Z,99.90
2022-08-20T02:52:54.776Z,99.90
2022-08-20T02:58:00.339Z,99.90
2022-08-20T03:03:06.159Z,99.90
2022-08-20T03:08:12.159Z,99.90
2022-08-20T03:13:17.406Z,99.90
2022-08-20T03:18:23.182Z,99.90
2022-08-20T03:23:27.073Z,99.90
2022-08-20T03:28:30.793Z,99.90
2022-08-20T03:33:36.606Z,99.90
2022-08-20T03:38:43.107Z,99.90
2022-08-20T03:43:46.765Z,99.90
2022-08-20T03:48:59.610Z,99.90
2022-08-20T03:54:04.508Z,99.90
2022-08-20T03:59:08.285Z,99.90
2022-08-20T04:04:13.250Z,99.90
2022-08-20T04:09:17.133Z,99.90
2022-08-20T04:14:20.907Z,99.90
2022-08-20T04:19:26.146Z,99.90
2022-08-20T04:24:32.034Z,99.90
2022-08-20T04:29:36.875Z,99.90
2022-08-20T04:34:41.928Z,99.90
2022-08-20T04:40:05.983Z,99.90
2022-08-20T04:45:10.291Z,99.90
2022-08-20T04:50:15.636Z,99.90
2022-08-20T04:55:19.696Z,99.90
2022-08-20T05:00:23.370Z,99.90
2022-08-20T05:05:29.152Z,99.90
2022-08-20T05:10:32.932Z,99.90
2022-08-20T05:15:38.638Z,99.90
2022-08-20T05:20:44.002Z,99.90
2022-08-20T05:25:51.569Z,99.90
2022-08-20T05:30:55.449Z,99.90
2022-08-20T05:36:00.570Z,99.90
2022-08-20T05:41:04.936Z,99.90
2022-08-20T05:46:08.883Z,99.90
2022-08-20T05:51:15.300Z,99.90
2022-08-20T05:56:19.072Z,99.90
2022-08-20T06:01:25.393Z,99.90
2022-08-20T06:06:44.261Z,99.90
2022-08-20T06:11:50.345Z,99.90
2022-08-20T06:16:57.955Z,99.90
2022-08-20T06:22:17.362Z,99.90
2022-08-20T06:27:24.305Z,99.90
2022-08-20T06:32:32.109Z,99.90
2022-08-20T06:37:40.488Z,99.90
2022-08-20T06:42:48.427Z,99.90
2022-08-20T06:47:53.433Z,99.90
2022-08-20T06:52:59.704Z,99.90
2022-08-20T06:58:05.790Z,99.90
2022-08-20T07:03:09.774Z,99.90
2022-08-20T07:08:18.756Z,99.90
2022-08-20T07:13:22.748Z,99.90
2022-08-20T07:18:29.253Z,99.90
2022-08-20T07:23:34.617Z,99.90
2022-08-20T07:28:38.470Z,99.90
2022-08-20T07:33:42.761Z,99.90
2022-08-20T07:38:51.075Z,99.90
2022-08-20T07:43:54.917Z,99.90
2022-08-20T07:48:58.753Z,99.90
2022-08-20T07:54:03.781Z,99.90
2022-08-20T07:59:07.477Z,99.90
2022-08-20T08:04:11.173Z,99.90
2022-08-20T08:09:16.451Z,99.90
2022-08-20T08:14:26.738Z,99.90
2022-08-20T08:19:37.836Z,99.90
2022-08-20T08:24:56.719Z,99.90
2022-08-20T08:30:01.466Z,99.90
2022-08-20T08:35:09.021Z,99.90
2022-08-20T08:40:14.433Z,99.90
2022-08-20T08:45:20.703Z,99.90
2022-08-20T08:50:53.396Z,99.90
2022-08-20T08:55:54.640Z,99.90
2022-08-20T09:01:01.718Z,99.90
2022-08-20T09:06:08.893Z,99.90
2022-08-20T09:11:14.011Z,99.90
2022-08-20T09:16:18.871Z,99.90
2022-08-20T09:21:22.589Z,99.90
2022-08-20T09:26:29.262Z,99.90
2022-08-20T09:31:33.074Z,99.90
2022-08-20T09:36:36.949Z,99.90
2022-08-20T09:41:42.230Z,99.90
2022-08-20T09:46:45.988Z,99.90
2022-08-20T09:51:49.758Z,99.90
2022-08-20T09:56:54.858Z,99.60
2022-08-20T10:01:58.631Z,97.50
2022-08-20T10:07:02.563Z,96.70
2022-08-20T10:12:08.357Z,96.60
2022-08-20T10:17:12.006Z,96.00
2022-08-20T10:22:15.707Z,96.10
2022-08-20T10:27:20.761Z,96.40
2022-08-20T10:32:24.488Z,97.50
2022-08-20T10:37:28.472Z,96.50
2022-08-20T10:42:33.624Z,95.70
2022-08-20T10:47:37.455Z,95.50
2022-08-20T10:52:41.121Z,94.70
2022-08-20T10:57:46.572Z,94.50
2022-08-20T11:02:50.243Z,90.50
2022-08-20T11:07:56.689Z,91.50
2022-08-20T11:13:02.366Z,92.10
2022-08-20T11:18:07.247Z,88.70
2022-08-20T11:23:10.931Z,89.00
2022-08-20T11:28:16.465Z,85.40
2022-08-20T11:33:35.077Z,89.80
2022-08-20T11:38:38.802Z,87.00
2022-08-20T11:43:59.477Z,84.30
2022-08-20T11:49:07.590Z,77.90
2022-08-20T11:54:11.327Z,82.50
2022-08-20T11:59:17.194Z,82.40
2022-08-20T12:04:21.007Z,81.80
2022-08-20T12:09:25.473Z,81.90
2022-08-20T12:14:30.571Z,76.00
2022-08-20T12:19:34.232Z,77.00
2022-08-20T12:24:38.309Z,76.10
2022-08-20T12:29:44.543Z,74.60
2022-08-20T12:34:48.797Z,76.30
2022-08-20T12:39:54.935Z,78.50
2022-08-20T12:45:00.860Z,77.80
2022-08-20T12:50:09.158Z,76.50
2022-08-20T12:55:16.054Z,72.70
2022-08-20T13:00:23.751Z,73.80
2022-08-20T13:05:28.750Z,74.80
2022-08-20T13:10:34.926Z,76.30
2022-08-20T13:15:40.546Z,77.20
2022-08-20T13:20:44.859Z,76.60
2022-08-20T13:25:48.556Z,76.70
2022-08-20T13:30:53.655Z,76.00
2022-08-20T13:35:57.902Z,74.90
2022-08-20T13:41:01.563Z,77.40
2022-08-20T13:46:06.937Z,77.60
2022-08-20T13:51:11.179Z,77.40
2022-08-20T13:56:14.878Z,77.40
2022-08-20T14:01:19.984Z,78.00
2022-08-20T14:06:23.758Z,78.10
2022-08-20T14:11:27.449Z,78.10
2022-08-20T14:16:35.078Z,76.60
2022-08-20T14:21:39.533Z,77.20
2022-08-20T14:26:43.279Z,75.90
2022-08-20T14:31:48.273Z,76.80
2022-08-20T14:36:52.156Z,76.90
2022-08-20T14:41:55.890Z,76.20
2022-08-20T14:47:11.956Z,76.50
2022-08-20T14:52:17.858Z,73.90
2022-08-20T14:57:22.177Z,74.90
2022-08-20T15:02:27.757Z,74.80
2022-08-20T15:07:32.833Z,74.20
2022-08-20T15:12:36.726Z,75.10
2022-08-20T15:17:45.054Z,73.30
2022-08-20T15:22:49.543Z,74.80
2022-08-20T15:28:00.699Z,75.20
2022-08-20T15:33:06.886Z,75.70
2022-08-20T15:38:10.619Z,76.00
2022-08-20T15:43:14.279Z,76.10
2022-08-20T15:48:21.853Z,73.70
2022-08-20T15:53:31.493Z,74.70
2022-08-20T15:58:40.720Z,74.80
2022-08-20T16:04:17.628Z,75.40
2022-08-20T16:09:39.477Z,73.80
2022-08-20T16:14:45.912Z,73.60
2022-08-20T16:19:57.575Z,74.00
2022-08-20T16:25:02.493Z,72.80
2022-08-20T16:30:11.089Z,73.70
2022-08-20T16:35:30.120Z,73.70
2022-08-20T16:40:39.751Z,72.50
2022-08-20T16:45:50.855Z,72.40
2022-08-20T16:51:02.168Z,71.30
2022-08-20T16:56:06.686Z,71.50
2022-08-20T17:01:13.863Z,70.60
2022-08-20T17:06:27.688Z,70.60
2022-08-20T17:11:33.229Z,68.60
2022-08-20T17:16:39.782Z,69.30
2022-08-20T17:21:45.000Z,69.80
2022-08-20T17:27:00.094Z,69.80
2022-08-20T17:32:17.145Z,70.80
2022-08-20T17:37:24.957Z,70.90
2022-08-20T17:42:29.914Z,71.50
2022-08-20T17:47:37.181Z,71.80
2022-08-20T17:52:48.201Z,72.50
2022-08-20T17:57:57.907Z,72.90
2022-08-20T18:03:09.104Z,73.20
2022-08-20T18:08:31.604Z,72.90
2022-08-20T18:13:53.893Z,73.70
2022-08-20T18:19:05.838Z,73.50
2022-08-20T18:24:19.448Z,73.70
2022-08-20T18:29:30.649Z,74.00
2022-08-20T18:34:40.743Z,73.60
2022-08-20T18:39:48.529Z,74.30
2022-08-20T18:44:54.284Z,74.60
2022-08-20T18:50:15.791Z,74.90
2022-08-20T18:55:34.142Z,75.40
2022-08-20T19:00:41.336Z,75.60
2022-08-20T19:06:06.751Z,75.80
2022-08-20T19:11:29.712Z,76.30
2022-08-20T19:16:38.121Z,76.70
2022-08-20T19:21:42.884Z,77.10
2022-08-20T19:26:53.200Z,77.50
2022-08-20T19:32:01.127Z,77.80
2022-08-20T19:37:27.646Z,78.10
2022-08-20T19:42:41.570Z,78.40
2022-08-20T19:47:52.834Z,78.80
2022-08-20T19:53:04.531Z,79.20
2022-08-20T19:58:26.232Z,79.40
2022-08-20T20:03:32.770Z,80.00
2022-08-20T20:08:40.667Z,80.30
2022-08-20T20:13:46.815Z,80.90
2022-08-20T20:19:09.285Z,81.00
2022-08-20T20:24:24.225Z,81.50
2022-08-20T20:29:36.035Z,82.00
2022-08-20T20:34:55.575Z,82.10
2022-08-20T20:40:04.568Z,82.70
2022-08-20T20:45:20.197Z,83.40
2022-08-20T20:50:31.269Z,83.50
2022-08-20T20:55:37.364Z,83.90
2022-08-20T21:00:42.451Z,84.30
2022-08-20T21:05:46.300Z,84.70
2022-08-20T21:10:50.091Z,84.90
2022-08-20T21:15:55.298Z,85.40
2022-08-20T21:20:59.076Z,85.90
2022-08-20T21:26:03.922Z,86.30
2022-08-20T21:31:09.286Z,86.60
2022-08-20T21:36:17.133Z,86.80
2022-08-20T21:41:30.051Z,87.20
2022-08-20T21:46:35.372Z,87.50
2022-08-20T21:51:39.022Z,88.20
2022-08-20T21:56:43.280Z,88.40
2022-08-20T22:01:49.101Z,88.70
2022-08-20T22:06:52.908Z,89.00
2022-08-20T22:11:57.572Z,89.10
2022-08-20T22:17:06.455Z,89.10
2022-08-20T22:22:11.404Z,90.00
2022-08-20T22:27:15.829Z,89.40
2022-08-20T22:32:21.081Z,89.70
2022-08-20T22:37:37.065Z,89.70
2022-08-20T22:42:40.891Z,89.70
2022-08-20T22:47:46.498Z,90.00
2022-08-20T22:52:50.211Z,90.00
2022-08-20T22:57:53.938Z,90.20
2022-08-20T23:03:00.661Z,90.30
2022-08-20T23:08:05.520Z,90.30
2022-08-20T23:13:09.503Z,90.60
2022-08-20T23:18:16.837Z,90.50
2022-08-20T23:23:21.056Z,90.50
2022-08-20T23:28:26.502Z,90.70
2022-08-20T23:33:32.084Z,90.80
2022-08-20T23:38:35.894Z,90.80
2022-08-20T23:43:40.094Z,90.80
2022-08-20T23:48:45.249Z,90.90
2022-08-20T23:53:49.149Z,91.00
2022-08-20T23:58:52.952Z,91.10
